sensor_id;sensor_type;location;lat;lon;timestamp;temperature;humidity
26378;DHT22;14078;50.974;6.786;2023-12-28T00:00:08;10.70;1.00
26378;DHT22;14078;50.974;6.786;2023-12-28T00:02:35;10.60;1.00
26378;DHT22;14078;50.974;6.786;2023-12-28T00:05:01;10.60;1.00
26378;DHT22;14078;50.974;6.786;2023-12-28T00:07:30;10.60;1.00
26378;DHT22;14078;50.974;6.786;2023-12-28T00:09:56;10.60;1.00
26378;DHT22;14078;50.974;6.786;2023-12-28T00:12:23;10.60;1.00
26378;DHT22;14078;50.974;6.786;2023-12-28T00:14:50;10.60;1.00
26378;DHT22;14078;50.974;6.786;2023-12-28T00:17:17;10.60;1.00
26378;DHT22;14078;50.974;6.786;2023-12-28T00:19:43;10.60;1.00
26378;DHT22;14078;50.974;6.786;2023-12-28T00:22:10;10.60;1.00
26378;DHT22;14078;50.974;6.786;2023-12-28T00:24:38;10.70;1.00
26378;DHT22;14078;50.974;6.786;2023-12-28T00:27:05;10.60;1.00
26378;DHT22;14078;50.974;6.786;2023-12-28T00:29:32;10.60;1.00
26378;DHT22;14078;50.974;6.786;2023-12-28T00:32:00;10.60;1.00
26378;DHT22;14078;50.974;6.786;2023-12-28T00:34:26;10.50;1.00
26378;DHT22;14078;50.974;6.786;2023-12-28T00:36:53;10.50;1.00
26378;DHT22;14078;50.974;6.786;2023-12-28T00:39:20;10.40;1.00
26378;DHT22;14078;50.974;6.786;2023-12-28T00:41:48;10.40;1.00
26378;DHT22;14078;50.974;6.786;2023-12-28T00:44:15;10.40;1.00
26378;DHT22;14078;50.974;6.786;2023-12-28T00:46:42;10.40;1.00
26378;DHT22;14078;50.974;6.786;2023-12-28T00:49:08;10.30;1.00
26378;DHT22;14078;50.974;6.786;2023-12-28T00:51:35;10.30;1.00
26378;DHT22;14078;50.974;6.786;2023-12-28T00:54:02;10.30;1.00
26378;DHT22;14078;50.974;6.786;2023-12-28T00:56:29;10.30;1.00
26378;DHT22;14078;50.974;6.786;2023-12-28T00:58:58;10.30;1.00
26378;DHT22;14078;50.974;6.786;2023-12-28T01:01:27;10.30;1.00
26378;DHT22;14078;50.974;6.786;2023-12-28T01:03:56;10.30;1.00
26378;DHT22;14078;50.974;6.786;2023-12-28T01:06:22;10.40;1.00
26378;DHT22;14078;50.974;6.786;2023-12-28T01:08:53;10.30;1.00
26378;DHT22;14078;50.974;6.786;2023-12-28T01:11:19;10.40;1.00
26378;DHT22;14078;50.974;6.786;2023-12-28T01:13:46;10.40;1.00
26378;DHT22;14078;50.974;6.786;2023-12-28T01:16:15;10.40;1.00
26378;DHT22;14078;50.974;6.786;2023-12-28T01:18:41;10.40;1.00
26378;DHT22;14078;50.974;6.786;2023-12-28T01:21:08;10.40;1.00
26378;DHT22;14078;50.974;6.786;2023-12-28T01:23:35;10.40;1.00
26378;DHT22;14078;50.974;6.786;2023-12-28T01:26:02;10.40;1.00
26378;DHT22;14078;50.974;6.786;2023-12-28T01:28:29;10.30;1.00
26378;DHT22;14078;50.974;6.786;2023-12-28T01:30:56;10.30;1.00
26378;DHT22;14078;50.974;6.786;2023-12-28T01:33:24;10.30;7.50
26378;DHT22;14078;50.974;6.786;2023-12-28T01:35:50;10.30;7.10
26378;DHT22;14078;50.974;6.786;2023-12-28T01:38:17;10.30;1.00
26378;DHT22;14078;50.974;6.786;2023-12-28T01:40:44;10.30;1.00
26378;DHT22;14078;50.974;6.786;2023-12-28T01:43:11;10.40;1.00
26378;DHT22;14078;50.974;6.786;2023-12-28T01:45:38;10.40;6.40
26378;DHT22;14078;50.974;6.786;2023-12-28T01:48:05;10.40;6.70
26378;DHT22;14078;50.974;6.786;2023-12-28T01:50:33;10.50;1.00
26378;DHT22;14078;50.974;6.786;2023-12-28T01:53:02;10.50;1.00
26378;DHT22;14078;50.974;6.786;2023-12-28T01:55:30;10.50;1.00
26378;DHT22;14078;50.974;6.786;2023-12-28T01:57:57;10.50;2.70
26378;DHT22;14078;50.974;6.786;2023-12-28T02:00:24;10.40;7.90
26378;DHT22;14078;50.974;6.786;2023-12-28T02:02:51;10.50;7.20
26378;DHT22;14078;50.974;6.786;2023-12-28T02:05:19;10.40;15.10
26378;DHT22;14078;50.974;6.786;2023-12-28T02:07:47;10.40;18.40
26378;DHT22;14078;50.974;6.786;2023-12-28T02:10:14;10.40;22.90
26378;DHT22;14078;50.974;6.786;2023-12-28T02:12:41;10.40;24.20
26378;DHT22;14078;50.974;6.786;2023-12-28T02:15:09;10.40;26.60
26378;DHT22;14078;50.974;6.786;2023-12-28T02:17:40;10.40;26.00
26378;DHT22;14078;50.974;6.786;2023-12-28T02:20:08;10.40;26.80
26378;DHT22;14078;50.974;6.786;2023-12-28T02:22:36;10.40;29.60
26378;DHT22;14078;50.974;6.786;2023-12-28T02:25:08;10.30;25.10
26378;DHT22;14078;50.974;6.786;2023-12-28T02:27:35;10.40;24.80
26378;DHT22;14078;50.974;6.786;2023-12-28T02:30:04;10.40;27.20
26378;DHT22;14078;50.974;6.786;2023-12-28T02:32:52;10.40;18.20
26378;DHT22;14078;50.974;6.786;2023-12-28T02:35:25;10.40;23.70
26378;DHT22;14078;50.974;6.786;2023-12-28T02:38:06;10.30;31.90
26378;DHT22;14078;50.974;6.786;2023-12-28T02:40:38;10.30;25.60
26378;DHT22;14078;50.974;6.786;2023-12-28T02:43:05;10.30;42.80
26378;DHT22;14078;50.974;6.786;2023-12-28T02:45:32;10.30;39.30
26378;DHT22;14078;50.974;6.786;2023-12-28T02:48:00;10.40;21.80
26378;DHT22;14078;50.974;6.786;2023-12-28T02:50:26;10.40;13.90
26378;DHT22;14078;50.974;6.786;2023-12-28T02:52:55;10.40;11.50
26378;DHT22;14078;50.974;6.786;2023-12-28T02:55:22;10.30;26.10
26378;DHT22;14078;50.974;6.786;2023-12-28T02:57:51;10.40;10.50
26378;DHT22;14078;50.974;6.786;2023-12-28T03:00:20;10.40;4.10
26378;DHT22;14078;50.974;6.786;2023-12-28T03:02:47;10.40;1.00
26378;DHT22;14078;50.974;6.786;2023-12-28T03:05:14;10.30;24.40
26378;DHT22;14078;50.974;6.786;2023-12-28T03:07:41;10.20;33.70
26378;DHT22;14078;50.974;6.786;2023-12-28T03:10:08;10.00;71.10
26378;DHT22;14078;50.974;6.786;2023-12-28T03:12:36;10.00;99.20
26378;DHT22;14078;50.974;6.786;2023-12-28T03:15:05;9.90;94.40
26378;DHT22;14078;50.974;6.786;2023-12-28T03:17:33;9.80;99.90
26378;DHT22;14078;50.974;6.786;2023-12-28T03:20:00;9.80;90.20
26378;DHT22;14078;50.974;6.786;2023-12-28T03:22:27;9.90;99.90
26378;DHT22;14078;50.974;6.786;2023-12-28T03:24:55;9.80;94.80
26378;DHT22;14078;50.974;6.786;2023-12-28T03:27:21;9.70;99.90
26378;DHT22;14078;50.974;6.786;2023-12-28T03:29:48;9.70;98.40
26378;DHT22;14078;50.974;6.786;2023-12-28T03:32:16;9.70;99.90
26378;DHT22;14078;50.974;6.786;2023-12-28T03:34:43;9.70;99.90
26378;DHT22;14078;50.974;6.786;2023-12-28T03:37:10;9.70;99.90
26378;DHT22;14078;50.974;6.786;2023-12-28T03:39:37;9.60;99.90
26378;DHT22;14078;50.974;6.786;2023-12-28T03:42:04;9.60;98.10
26378;DHT22;14078;50.974;6.786;2023-12-28T03:44:31;9.70;99.90
26378;DHT22;14078;50.974;6.786;2023-12-28T03:46:57;9.60;97.00
26378;DHT22;14078;50.974;6.786;2023-12-28T03:49:26;9.50;99.90
26378;DHT22;14078;50.974;6.786;2023-12-28T03:51:54;9.50;99.90
26378;DHT22;14078;50.974;6.786;2023-12-28T03:54:20;9.60;99.90
26378;DHT22;14078;50.974;6.786;2023-12-28T03:56:47;9.60;81.90
26378;DHT22;14078;50.974;6.786;2023-12-28T03:59:14;9.50;97.00
26378;DHT22;14078;50.974;6.786;2023-12-28T04:01:41;9.50;99.20
26378;DHT22;14078;50.974;6.786;2023-12-28T04:04:08;9.50;99.90
26378;DHT22;14078;50.974;6.786;2023-12-28T04:06:36;9.40;99.90
26378;DHT22;14078;50.974;6.786;2023-12-28T04:09:03;9.50;87.60
26378;DHT22;14078;50.974;6.786;2023-12-28T04:11:30;9.60;56.60
26378;DHT22;14078;50.974;6.786;2023-12-28T04:13:57;9.60;44.60
26378;DHT22;14078;50.974;6.786;2023-12-28T04:16:23;9.50;37.20
26378;DHT22;14078;50.974;6.786;2023-12-28T04:18:50;9.60;46.70
26378;DHT22;14078;50.974;6.786;2023-12-28T04:21:17;9.50;39.50
26378;DHT22;14078;50.974;6.786;2023-12-28T04:23:46;9.50;58.70
26378;DHT22;14078;50.974;6.786;2023-12-28T04:26:13;9.40;58.40
26378;DHT22;14078;50.974;6.786;2023-12-28T04:28:40;9.40;90.90
26378;DHT22;14078;50.974;6.786;2023-12-28T04:31:07;9.30;96.90
26378;DHT22;14078;50.974;6.786;2023-12-28T04:33:33;9.30;96.30
26378;DHT22;14078;50.974;6.786;2023-12-28T04:36:00;9.20;98.60
26378;DHT22;14078;50.974;6.786;2023-12-28T04:38:29;9.10;99.90
26378;DHT22;14078;50.974;6.786;2023-12-28T04:40:58;9.10;99.90
26378;DHT22;14078;50.974;6.786;2023-12-28T04:43:25;9.00;99.90
26378;DHT22;14078;50.974;6.786;2023-12-28T04:45:52;8.90;99.90
26378;DHT22;14078;50.974;6.786;2023-12-28T04:48:18;8.90;99.90
26378;DHT22;14078;50.974;6.786;2023-12-28T04:50:46;8.90;99.90
26378;DHT22;14078;50.974;6.786;2023-12-28T04:53:14;8.90;99.90
26378;DHT22;14078;50.974;6.786;2023-12-28T04:55:41;8.80;99.90
26378;DHT22;14078;50.974;6.786;2023-12-28T04:58:10;8.80;99.90
26378;DHT22;14078;50.974;6.786;2023-12-28T05:00:37;8.70;99.90
26378;DHT22;14078;50.974;6.786;2023-12-28T05:03:04;8.80;99.90
26378;DHT22;14078;50.974;6.786;2023-12-28T05:05:31;8.70;99.90
26378;DHT22;14078;50.974;6.786;2023-12-28T05:07:57;8.70;99.90
26378;DHT22;14078;50.974;6.786;2023-12-28T05:10:24;8.70;99.90
26378;DHT22;14078;50.974;6.786;2023-12-28T05:12:51;8.60;99.90
26378;DHT22;14078;50.974;6.786;2023-12-28T05:15:19;8.50;99.90
26378;DHT22;14078;50.974;6.786;2023-12-28T05:17:45;8.40;99.90
26378;DHT22;14078;50.974;6.786;2023-12-28T05:20:12;8.40;99.90
26378;DHT22;14078;50.974;6.786;2023-12-28T05:22:39;8.30;99.90
26378;DHT22;14078;50.974;6.786;2023-12-28T05:25:06;8.30;99.90
26378;DHT22;14078;50.974;6.786;2023-12-28T05:27:32;8.30;99.90
26378;DHT22;14078;50.974;6.786;2023-12-28T05:29:59;8.20;99.90
26378;DHT22;14078;50.974;6.786;2023-12-28T05:32:27;8.20;99.90
26378;DHT22;14078;50.974;6.786;2023-12-28T05:34:54;8.10;99.90
26378;DHT22;14078;50.974;6.786;2023-12-28T05:37:21;8.00;99.90
26378;DHT22;14078;50.974;6.786;2023-12-28T05:39:47;8.00;99.90
26378;DHT22;14078;50.974;6.786;2023-12-28T05:42:14;7.90;99.90
26378;DHT22;14078;50.974;6.786;2023-12-28T05:44:41;8.00;99.90
26378;DHT22;14078;50.974;6.786;2023-12-28T05:47:08;8.10;99.90
26378;DHT22;14078;50.974;6.786;2023-12-28T05:49:37;8.10;99.90
26378;DHT22;14078;50.974;6.786;2023-12-28T05:52:04;8.20;99.90
26378;DHT22;14078;50.974;6.786;2023-12-28T05:54:31;8.40;99.90
26378;DHT22;14078;50.974;6.786;2023-12-28T05:56:57;8.40;99.90
26378;DHT22;14078;50.974;6.786;2023-12-28T05:59:24;8.50;99.90
26378;DHT22;14078;50.974;6.786;2023-12-28T06:01:52;8.60;99.90
26378;DHT22;14078;50.974;6.786;2023-12-28T06:04:19;8.60;99.90
26378;DHT22;14078;50.974;6.786;2023-12-28T06:06:47;8.70;99.90
26378;DHT22;14078;50.974;6.786;2023-12-28T06:09:13;8.70;99.90
26378;DHT22;14078;50.974;6.786;2023-12-28T06:11:40;8.80;99.90
26378;DHT22;14078;50.974;6.786;2023-12-28T06:14:07;8.80;90.70
26378;DHT22;14078;50.974;6.786;2023-12-28T06:16:34;8.90;95.70
26378;DHT22;14078;50.974;6.786;2023-12-28T06:19:01;9.10;48.70
26378;DHT22;14078;50.974;6.786;2023-12-28T06:21:27;9.30;1.00
26378;DHT22;14078;50.974;6.786;2023-12-28T06:23:57;9.40;1.00
26378;DHT22;14078;50.974;6.786;2023-12-28T06:26:23;9.40;1.00
26378;DHT22;14078;50.974;6.786;2023-12-28T06:28:51;9.50;1.00
26378;DHT22;14078;50.974;6.786;2023-12-28T06:31:17;9.70;99.90
26378;DHT22;14078;50.974;6.786;2023-12-28T06:33:44;9.80;99.90
26378;DHT22;14078;50.974;6.786;2023-12-28T06:36:11;9.80;99.90
26378;DHT22;14078;50.974;6.786;2023-12-28T06:38:38;9.80;99.90
26378;DHT22;14078;50.974;6.786;2023-12-28T06:41:11;9.80;99.90
26378;DHT22;14078;50.974;6.786;2023-12-28T06:43:38;9.70;99.90
26378;DHT22;14078;50.974;6.786;2023-12-28T06:46:05;9.70;99.90
26378;DHT22;14078;50.974;6.786;2023-12-28T06:48:32;9.70;99.90
26378;DHT22;14078;50.974;6.786;2023-12-28T06:50:58;9.70;1.00
26378;DHT22;14078;50.974;6.786;2023-12-28T06:53:25;9.50;1.00
26378;DHT22;14078;50.974;6.786;2023-12-28T06:55:52;9.50;1.00
26378;DHT22;14078;50.974;6.786;2023-12-28T06:58:20;9.60;1.00
26378;DHT22;14078;50.974;6.786;2023-12-28T07:00:47;9.50;1.00
26378;DHT22;14078;50.974;6.786;2023-12-28T07:03:14;9.40;1.00
26378;DHT22;14078;50.974;6.786;2023-12-28T07:05:40;9.30;1.00
26378;DHT22;14078;50.974;6.786;2023-12-28T07:08:07;9.20;1.00
26378;DHT22;14078;50.974;6.786;2023-12-28T07:10:34;9.10;1.00
26378;DHT22;14078;50.974;6.786;2023-12-28T07:13:01;9.10;1.00
26378;DHT22;14078;50.974;6.786;2023-12-28T07:15:29;9.10;1.00
26378;DHT22;14078;50.974;6.786;2023-12-28T07:17:56;9.00;1.00
26378;DHT22;14078;50.974;6.786;2023-12-28T07:20:23;9.00;13.20
26378;DHT22;14078;50.974;6.786;2023-12-28T07:22:50;9.00;1.00
26378;DHT22;14078;50.974;6.786;2023-12-28T07:25:16;9.00;1.00
26378;DHT22;14078;50.974;6.786;2023-12-28T07:27:43;9.10;1.00
26378;DHT22;14078;50.974;6.786;2023-12-28T07:30:11;9.10;1.00
26378;DHT22;14078;50.974;6.786;2023-12-28T07:32:39;8.90;1.00
26378;DHT22;14078;50.974;6.786;2023-12-28T07:35:06;8.90;19.00
26378;DHT22;14078;50.974;6.786;2023-12-28T07:37:33;8.90;49.30
26378;DHT22;14078;50.974;6.786;2023-12-28T07:40:00;8.80;37.80
26378;DHT22;14078;50.974;6.786;2023-12-28T07:42:27;8.80;42.60
26378;DHT22;14078;50.974;6.786;2023-12-28T07:44:53;8.80;31.20
26378;DHT22;14078;50.974;6.786;2023-12-28T07:47:20;8.80;39.50
26378;DHT22;14078;50.974;6.786;2023-12-28T07:49:48;8.90;38.40
26378;DHT22;14078;50.974;6.786;2023-12-28T07:52:15;8.90;52.20
26378;DHT22;14078;50.974;6.786;2023-12-28T07:54:42;8.90;19.60
26378;DHT22;14078;50.974;6.786;2023-12-28T07:57:09;9.00;10.30
26378;DHT22;14078;50.974;6.786;2023-12-28T07:59:36;9.20;1.00
26378;DHT22;14078;50.974;6.786;2023-12-28T08:02:03;9.10;1.00
26378;DHT22;14078;50.974;6.786;2023-12-28T08:04:29;9.10;1.00
26378;DHT22;14078;50.974;6.786;2023-12-28T08:06:58;9.10;15.20
26378;DHT22;14078;50.974;6.786;2023-12-28T08:09:25;9.00;21.90
26378;DHT22;14078;50.974;6.786;2023-12-28T08:11:53;9.00;21.90
26378;DHT22;14078;50.974;6.786;2023-12-28T08:14:19;8.90;39.80
26378;DHT22;14078;50.974;6.786;2023-12-28T08:16:46;9.00;43.20
26378;DHT22;14078;50.974;6.786;2023-12-28T08:19:13;9.00;33.40
26378;DHT22;14078;50.974;6.786;2023-12-28T08:21:40;9.10;1.00
26378;DHT22;14078;50.974;6.786;2023-12-28T08:24:08;9.10;18.10
26378;DHT22;14078;50.974;6.786;2023-12-28T08:26:35;9.20;1.00
26378;DHT22;14078;50.974;6.786;2023-12-28T08:29:02;9.30;1.00
26378;DHT22;14078;50.974;6.786;2023-12-28T08:31:28;9.40;1.00
26378;DHT22;14078;50.974;6.786;2023-12-28T08:33:55;9.60;1.00
26378;DHT22;14078;50.974;6.786;2023-12-28T08:36:23;9.70;1.00
26378;DHT22;14078;50.974;6.786;2023-12-28T08:38:49;9.70;99.90
26378;DHT22;14078;50.974;6.786;2023-12-28T08:41:21;9.80;99.90
26378;DHT22;14078;50.974;6.786;2023-12-28T08:43:49;9.90;99.90
26378;DHT22;14078;50.974;6.786;2023-12-28T08:46:17;9.90;99.90
26378;DHT22;14078;50.974;6.786;2023-12-28T08:48:44;9.80;99.90
26378;DHT22;14078;50.974;6.786;2023-12-28T08:51:11;10.00;99.90
26378;DHT22;14078;50.974;6.786;2023-12-28T08:53:40;10.00;99.90
26378;DHT22;14078;50.974;6.786;2023-12-28T08:56:13;10.00;99.90
26378;DHT22;14078;50.974;6.786;2023-12-28T08:58:43;10.10;1.00
26378;DHT22;14078;50.974;6.786;2023-12-28T09:01:16;10.10;1.00
26378;DHT22;14078;50.974;6.786;2023-12-28T09:03:43;10.10;99.90
26378;DHT22;14078;50.974;6.786;2023-12-28T09:06:10;10.20;1.00
26378;DHT22;14078;50.974;6.786;2023-12-28T09:08:37;10.30;99.90
26378;DHT22;14078;50.974;6.786;2023-12-28T09:11:04;10.40;46.00
26378;DHT22;14078;50.974;6.786;2023-12-28T09:13:30;10.40;99.90
26378;DHT22;14078;50.974;6.786;2023-12-28T09:15:59;10.40;1.00
26378;DHT22;14078;50.974;6.786;2023-12-28T09:18:25;10.40;1.00
26378;DHT22;14078;50.974;6.786;2023-12-28T09:20:52;10.40;99.90
26378;DHT22;14078;50.974;6.786;2023-12-28T09:23:19;10.40;99.90
26378;DHT22;14078;50.974;6.786;2023-12-28T09:25:45;10.40;99.90
26378;DHT22;14078;50.974;6.786;2023-12-28T09:28:12;10.50;99.90
26378;DHT22;14078;50.974;6.786;2023-12-28T09:30:39;10.40;1.00
26378;DHT22;14078;50.974;6.786;2023-12-28T09:33:07;10.40;99.90
26378;DHT22;14078;50.974;6.786;2023-12-28T09:35:34;10.30;1.00
26378;DHT22;14078;50.974;6.786;2023-12-28T09:38:01;10.30;51.20
26378;DHT22;14078;50.974;6.786;2023-12-28T09:40:28;10.40;1.00
26378;DHT22;14078;50.974;6.786;2023-12-28T09:43:01;10.40;1.00
26378;DHT22;14078;50.974;6.786;2023-12-28T09:45:29;10.40;99.90
26378;DHT22;14078;50.974;6.786;2023-12-28T09:47:56;10.50;33.90
26378;DHT22;14078;50.974;6.786;2023-12-28T09:50:24;10.50;99.90
26378;DHT22;14078;50.974;6.786;2023-12-28T09:52:52;10.60;99.90
26378;DHT22;14078;50.974;6.786;2023-12-28T09:55:18;10.60;1.00
26378;DHT22;14078;50.974;6.786;2023-12-28T09:57:46;10.60;99.90
26378;DHT22;14078;50.974;6.786;2023-12-28T10:00:13;10.70;57.30
26378;DHT22;14078;50.974;6.786;2023-12-28T10:02:40;10.80;99.90
26378;DHT22;14078;50.974;6.786;2023-12-28T10:05:12;10.80;99.90
26378;DHT22;14078;50.974;6.786;2023-12-28T10:07:42;11.00;55.20
26378;DHT22;14078;50.974;6.786;2023-12-28T10:10:09;11.00;1.00
26378;DHT22;14078;50.974;6.786;2023-12-28T10:12:36;11.10;99.90
26378;DHT22;14078;50.974;6.786;2023-12-28T10:15:04;11.00;99.90
26378;DHT22;14078;50.974;6.786;2023-12-28T10:17:32;11.10;1.00
26378;DHT22;14078;50.974;6.786;2023-12-28T10:19:59;11.20;1.00
26378;DHT22;14078;50.974;6.786;2023-12-28T10:22:30;11.20;1.00
26378;DHT22;14078;50.974;6.786;2023-12-28T10:24:59;11.20;1.00
26378;DHT22;14078;50.974;6.786;2023-12-28T10:27:26;11.30;1.00
26378;DHT22;14078;50.974;6.786;2023-12-28T10:29:54;11.30;1.00
26378;DHT22;14078;50.974;6.786;2023-12-28T10:32:21;11.30;99.90
26378;DHT22;14078;50.974;6.786;2023-12-28T10:34:48;11.30;99.90
26378;DHT22;14078;50.974;6.786;2023-12-28T10:37:16;11.30;99.90
26378;DHT22;14078;50.974;6.786;2023-12-28T10:39:46;11.40;1.00
26378;DHT22;14078;50.974;6.786;2023-12-28T10:42:19;11.40;99.90
26378;DHT22;14078;50.974;6.786;2023-12-28T10:44:49;11.40;99.90
26378;DHT22;14078;50.974;6.786;2023-12-28T10:47:18;11.50;99.90
26378;DHT22;14078;50.974;6.786;2023-12-28T10:49:48;11.60;99.90
26378;DHT22;14078;50.974;6.786;2023-12-28T10:52:16;11.60;99.90
26378;DHT22;14078;50.974;6.786;2023-12-28T10:54:50;11.60;99.90
26378;DHT22;14078;50.974;6.786;2023-12-28T10:57:23;11.60;1.00
26378;DHT22;14078;50.974;6.786;2023-12-28T11:00:00;11.70;1.00
26378;DHT22;14078;50.974;6.786;2023-12-28T11:02:32;11.80;1.00
26378;DHT22;14078;50.974;6.786;2023-12-28T11:05:03;11.80;1.00
26378;DHT22;14078;50.974;6.786;2023-12-28T11:07:32;11.80;99.90
26378;DHT22;14078;50.974;6.786;2023-12-28T11:10:00;11.90;99.90
26378;DHT22;14078;50.974;6.786;2023-12-28T11:12:32;11.90;99.90
26378;DHT22;14078;50.974;6.786;2023-12-28T11:14:59;12.00;99.90
26378;DHT22;14078;50.974;6.786;2023-12-28T11:17:28;12.00;99.90
26378;DHT22;14078;50.974;6.786;2023-12-28T11:19:57;12.10;99.90
26378;DHT22;14078;50.974;6.786;2023-12-28T11:22:25;12.10;99.90
26378;DHT22;14078;50.974;6.786;2023-12-28T11:24:52;12.20;99.90
26378;DHT22;14078;50.974;6.786;2023-12-28T11:27:20;12.20;99.90
26378;DHT22;14078;50.974;6.786;2023-12-28T11:29:49;12.30;99.90
26378;DHT22;14078;50.974;6.786;2023-12-28T11:32:19;12.30;99.90
26378;DHT22;14078;50.974;6.786;2023-12-28T11:34:56;12.40;99.90
26378;DHT22;14078;50.974;6.786;2023-12-28T11:37:24;12.40;99.90
26378;DHT22;14078;50.974;6.786;2023-12-28T11:39:52;12.40;63.60
26378;DHT22;14078;50.974;6.786;2023-12-28T11:42:20;12.50;35.50
26378;DHT22;14078;50.974;6.786;2023-12-28T11:44:55;12.50;3.80
26378;DHT22;14078;50.974;6.786;2023-12-28T11:47:22;12.60;1.00
26378;DHT22;14078;50.974;6.786;2023-12-28T11:49:49;12.50;1.00
26378;DHT22;14078;50.974;6.786;2023-12-28T11:52:25;12.50;1.00
26378;DHT22;14078;50.974;6.786;2023-12-28T11:54:52;12.60;1.00
26378;DHT22;14078;50.974;6.786;2023-12-28T11:57:19;12.60;1.00
26378;DHT22;14078;50.974;6.786;2023-12-28T11:59:47;12.70;1.00
26378;DHT22;14078;50.974;6.786;2023-12-28T12:02:16;12.70;1.00
26378;DHT22;14078;50.974;6.786;2023-12-28T12:04:42;12.70;99.90
26378;DHT22;14078;50.974;6.786;2023-12-28T12:07:09;12.70;99.90
26378;DHT22;14078;50.974;6.786;2023-12-28T12:09:36;12.70;99.90
26378;DHT22;14078;50.974;6.786;2023-12-28T12:12:03;12.60;99.90
26378;DHT22;14078;50.974;6.786;2023-12-28T12:14:30;12.60;99.90
26378;DHT22;14078;50.974;6.786;2023-12-28T12:16:57;12.50;99.90
26378;DHT22;14078;50.974;6.786;2023-12-28T12:19:25;12.50;99.90
26378;DHT22;14078;50.974;6.786;2023-12-28T12:21:51;12.50;99.90
26378;DHT22;14078;50.974;6.786;2023-12-28T12:24:18;12.50;99.90
26378;DHT22;14078;50.974;6.786;2023-12-28T12:26:45;12.50;99.90
26378;DHT22;14078;50.974;6.786;2023-12-28T12:29:12;12.50;99.90
26378;DHT22;14078;50.974;6.786;2023-12-28T12:31:39;12.50;99.90
26378;DHT22;14078;50.974;6.786;2023-12-28T12:34:07;12.50;99.90
26378;DHT22;14078;50.974;6.786;2023-12-28T12:36:35;12.50;99.90
26378;DHT22;14078;50.974;6.786;2023-12-28T12:39:03;12.40;99.90
26378;DHT22;14078;50.974;6.786;2023-12-28T12:41:31;12.40;99.90
26378;DHT22;14078;50.974;6.786;2023-12-28T12:43:58;12.50;99.90
26378;DHT22;14078;50.974;6.786;2023-12-28T12:46:25;12.50;99.90
26378;DHT22;14078;50.974;6.786;2023-12-28T12:48:55;12.50;99.90
26378;DHT22;14078;50.974;6.786;2023-12-28T12:51:22;12.50;99.90
26378;DHT22;14078;50.974;6.786;2023-12-28T12:53:49;12.50;99.90
26378;DHT22;14078;50.974;6.786;2023-12-28T12:56:16;12.50;99.90
26378;DHT22;14078;50.974;6.786;2023-12-28T12:58:43;12.50;99.90
26378;DHT22;14078;50.974;6.786;2023-12-28T13:01:10;12.40;99.90
26378;DHT22;14078;50.974;6.786;2023-12-28T13:03:37;12.40;99.90
26378;DHT22;14078;50.974;6.786;2023-12-28T13:06:04;12.40;99.90
26378;DHT22;14078;50.974;6.786;2023-12-28T13:08:31;12.40;99.90
26378;DHT22;14078;50.974;6.786;2023-12-28T13:10:59;12.30;99.90
26378;DHT22;14078;50.974;6.786;2023-12-28T13:13:25;12.30;99.90
26378;DHT22;14078;50.974;6.786;2023-12-28T13:15:53;12.30;99.90
26378;DHT22;14078;50.974;6.786;2023-12-28T13:18:19;12.40;99.90
26378;DHT22;14078;50.974;6.786;2023-12-28T13:20:46;12.40;99.90
26378;DHT22;14078;50.974;6.786;2023-12-28T13:23:12;12.30;99.90
26378;DHT22;14078;50.974;6.786;2023-12-28T13:25:39;12.30;99.90
26378;DHT22;14078;50.974;6.786;2023-12-28T13:28:07;12.30;99.90
26378;DHT22;14078;50.974;6.786;2023-12-28T13:30:34;12.30;99.90
26378;DHT22;14078;50.974;6.786;2023-12-28T13:33:03;12.30;99.90
26378;DHT22;14078;50.974;6.786;2023-12-28T13:35:30;12.30;99.90
26378;DHT22;14078;50.974;6.786;2023-12-28T13:37:58;12.30;99.90
26378;DHT22;14078;50.974;6.786;2023-12-28T13:40:25;12.30;99.90
26378;DHT22;14078;50.974;6.786;2023-12-28T13:42:51;12.20;99.90
26378;DHT22;14078;50.974;6.786;2023-12-28T13:45:19;12.20;99.90
26378;DHT22;14078;50.974;6.786;2023-12-28T13:47:46;12.20;99.90
26378;DHT22;14078;50.974;6.786;2023-12-28T13:50:13;12.20;99.90
26378;DHT22;14078;50.974;6.786;2023-12-28T13:52:40;12.10;99.90
26378;DHT22;14078;50.974;6.786;2023-12-28T13:55:06;12.10;99.90
26378;DHT22;14078;50.974;6.786;2023-12-28T13:57:33;12.10;99.90
26378;DHT22;14078;50.974;6.786;2023-12-28T14:00:00;12.10;99.90
26378;DHT22;14078;50.974;6.786;2023-12-28T14:02:28;12.00;99.90
26378;DHT22;14078;50.974;6.786;2023-12-28T14:04:54;11.90;99.90
26378;DHT22;14078;50.974;6.786;2023-12-28T14:07:22;11.90;99.90
26378;DHT22;14078;50.974;6.786;2023-12-28T14:09:48;11.80;99.90
26378;DHT22;14078;50.974;6.786;2023-12-28T14:12:15;11.90;99.90
26378;DHT22;14078;50.974;6.786;2023-12-28T14:14:42;11.90;99.90
26378;DHT22;14078;50.974;6.786;2023-12-28T14:17:08;11.90;99.90
26378;DHT22;14078;50.974;6.786;2023-12-28T14:19:36;11.80;99.90
26378;DHT22;14078;50.974;6.786;2023-12-28T14:22:03;11.80;99.90
26378;DHT22;14078;50.974;6.786;2023-12-28T14:24:30;11.70;99.90
26378;DHT22;14078;50.974;6.786;2023-12-28T14:26:57;11.80;99.90
26378;DHT22;14078;50.974;6.786;2023-12-28T14:29:23;11.70;99.90
26378;DHT22;14078;50.974;6.786;2023-12-28T14:31:50;11.70;99.90
26378;DHT22;14078;50.974;6.786;2023-12-28T14:34:17;11.60;99.90
26378;DHT22;14078;50.974;6.786;2023-12-28T14:36:45;11.60;99.90
26378;DHT22;14078;50.974;6.786;2023-12-28T14:39:15;11.60;99.90
26378;DHT22;14078;50.974;6.786;2023-12-28T14:41:43;11.60;99.90
26378;DHT22;14078;50.974;6.786;2023-12-28T14:44:10;11.50;99.90
26378;DHT22;14078;50.974;6.786;2023-12-28T14:46:37;11.50;99.90
26378;DHT22;14078;50.974;6.786;2023-12-28T14:49:03;11.50;99.90
26378;DHT22;14078;50.974;6.786;2023-12-28T14:51:30;11.50;99.90
26378;DHT22;14078;50.974;6.786;2023-12-28T14:53:58;11.50;1.00
26378;DHT22;14078;50.974;6.786;2023-12-28T14:56:24;11.40;99.90
26378;DHT22;14078;50.974;6.786;2023-12-28T14:58:51;11.40;1.00
26378;DHT22;14078;50.974;6.786;2023-12-28T15:01:18;11.40;1.00
26378;DHT22;14078;50.974;6.786;2023-12-28T15:03:46;11.30;1.00
26378;DHT22;14078;50.974;6.786;2023-12-28T15:06:12;11.30;1.00
26378;DHT22;14078;50.974;6.786;2023-12-28T15:08:39;11.30;1.00
26378;DHT22;14078;50.974;6.786;2023-12-28T15:11:08;11.30;1.00
26378;DHT22;14078;50.974;6.786;2023-12-28T15:13:36;11.20;1.00
26378;DHT22;14078;50.974;6.786;2023-12-28T15:16:02;11.10;1.00
26378;DHT22;14078;50.974;6.786;2023-12-28T15:18:29;11.10;1.00
26378;DHT22;14078;50.974;6.786;2023-12-28T15:20:56;11.10;1.00
26378;DHT22;14078;50.974;6.786;2023-12-28T15:23:23;10.90;99.90
26378;DHT22;14078;50.974;6.786;2023-12-28T15:25:52;10.90;99.90
26378;DHT22;14078;50.974;6.786;2023-12-28T15:28:20;10.90;99.90
26378;DHT22;14078;50.974;6.786;2023-12-28T15:30:48;10.80;99.90
26378;DHT22;14078;50.974;6.786;2023-12-28T15:33:15;10.80;99.90
26378;DHT22;14078;50.974;6.786;2023-12-28T15:35:41;10.80;99.90
26378;DHT22;14078;50.974;6.786;2023-12-28T15:38:08;10.70;91.50
26378;DHT22;14078;50.974;6.786;2023-12-28T15:40:35;10.70;1.00
26378;DHT22;14078;50.974;6.786;2023-12-28T15:43:01;10.60;99.90